Portada
METAR-TAF:

METAR-TAF

Aeropuertos :

Masvingo, Zimbabue

latitud: 20-04S, longitud: 030-52E, altitud: 1094 m

Observación

El informe se hizo hace 1 hora y 25 minutos, a las 12:00 UTC
Viento 10 kt del este-sureste
Temperatura 32°C
Humedad 15%
Presión 1019 hPa
Visibilidad 10 km o más
sin nubes por debajo de 1500 m y sin presencia de cumulonimbus.

METAR: FVMV 231200Z 12010KT CAVOK 32/02 Q1019 NOSIG

Hora: 15:25 (13:25 UTC)


TAF: falta

Observaciones y pronósticos meteorológicos de más de 4000 aeropuertos (mensajes METAR y TAF).

Los puntos amarillos y rojos representan las estaciones disponibles.

Ponga el ratón en el punto deseado para ver el nombre de la estación.

Haga clic para ver las observaciones y los pronósticos meteorológicos.

Para cambiar el mapa : haga clic en los botones verdes con una cruz de color negro para hacer un zoom, en el botón verde con un guión para alejar o en las flechas verdes para mapas adyacentes.


METAR-TAF: